Time;durP1;ratioP1;P1;durP2;ratioP2;P2;SDS_P1;SDS_P2;PMS_P1;PMS_P2;Temp;Humidity;BMP_temperature;BMP_pressure;BME280_temperature;BME280_humidity;BME280_pressure;Samples;Min_cycle;Max_cycle;Signal;HPM_P1;HPM_P2
2020/12/09 00:00:02;;;;;;;23.60;17.80;;;7.20;78.10;;;;;;5068931;28;20683;-51
2020/12/09 00:02:29;;;;;;;32.43;22.47;;;7.10;78.50;;;;;;5079656;28;20636;-50
2020/12/09 00:04:57;;;;;;;23.53;19.30;;;7.10;79.00;;;;;;5089058;28;20653;-51
2020/12/09 00:07:23;;;;;;;21.20;18.37;;;7.10;79.10;;;;;;5088897;28;20675;-51
2020/12/09 00:09:50;;;;;;;24.03;18.23;;;7.10;79.00;;;;;;5089309;28;20627;-53
2020/12/09 00:12:17;;;;;;;22.80;17.73;;;7.20;79.20;;;;;;5089391;28;21143;-52
2020/12/09 00:14:44;;;;;;;23.80;17.20;;;7.20;79.70;;;;;;5084692;28;21226;-51
2020/12/09 00:17:10;;;;;;;28.13;19.60;;;7.20;79.80;;;;;;5047516;28;20627;-50
2020/12/09 00:19:38;;;;;;;21.60;18.93;;;7.20;80.20;;;;;;5069366;28;20630;-50
2020/12/09 00:22:05;;;;;;;23.30;17.83;;;7.20;80.60;;;;;;5069376;28;20630;-54
2020/12/09 00:24:31;;;;;;;24.60;18.57;;;7.20;80.20;;;;;;5068648;28;20739;-50
2020/12/09 00:26:58;;;;;;;23.03;19.20;;;7.20;80.30;;;;;;5068725;28;20622;-50
2020/12/09 00:29:25;;;;;;;25.97;17.70;;;7.20;79.30;;;;;;5071475;28;20730;-50
2020/12/09 00:31:51;;;;;;;22.80;18.13;;;7.30;79.90;;;;;;5079575;28;20698;-50
2020/12/09 00:34:18;;;;;;;19.67;17.33;;;7.30;79.90;;;;;;5062800;28;20727;-50
2020/12/09 00:36:46;;;;;;;26.03;18.13;;;7.30;80.40;;;;;;5035324;28;20647;-50
2020/12/09 00:39:12;;;;;;;23.67;18.80;;;7.30;80.50;;;;;;5052883;28;21159;-50
2020/12/09 00:41:39;;;;;;;24.67;18.73;;;7.30;80.00;;;;;;5056452;28;20627;-50
2020/12/09 00:44:06;;;;;;;23.40;18.60;;;7.30;81.20;;;;;;5052445;28;21236;-51
2020/12/09 00:46:33;;;;;;;23.23;18.20;;;7.30;80.70;;;;;;5080883;28;20972;-51
2020/12/09 00:49:00;;;;;;;25.10;19.73;;;7.40;81.10;;;;;;5072760;28;20662;-50
2020/12/09 00:51:27;;;;;;;24.17;18.97;;;7.40;81.50;;;;;;5063168;28;20696;-51
2020/12/09 00:53:54;;;;;;;22.47;17.87;;;7.40;81.30;;;;;;5052173;28;21013;-50
2020/12/09 00:56:21;;;;;;;24.17;19.00;;;7.50;81.30;;;;;;5052664;28;20844;-50
2020/12/09 00:58:48;;;;;;;28.53;21.27;;;7.50;81.70;;;;;;5052189;28;20622;-51
2020/12/09 01:01:14;;;;;;;27.17;21.47;;;7.50;81.90;;;;;;5067892;28;20720;-50
2020/12/09 01:03:41;;;;;;;26.27;22.00;;;7.60;82.20;;;;;;5092444;28;20668;-51
2020/12/09 01:06:08;;;;;;;22.87;19.17;;;7.60;82.40;;;;;;5061855;28;20705;-48
2020/12/09 01:08:35;;;;;;;25.60;19.80;;;7.60;82.60;;;;;;5072380;28;20716;-50
2020/12/09 01:11:03;;;;;;;28.00;20.77;;;7.40;82.50;;;;;;5073932;28;20667;-49
2020/12/09 01:13:30;;;;;;;27.37;21.10;;;7.30;83.10;;;;;;5092088;28;20667;-48
2020/12/09 01:15:56;;;;;;;26.20;19.73;;;7.20;83.60;;;;;;5092017;28;20628;-50
2020/12/09 01:18:23;;;;;;;25.93;19.67;;;7.20;83.60;;;;;;5081360;28;20695;-48
2020/12/09 01:20:50;;;;;;;23.73;20.60;;;7.20;83.80;;;;;;5072502;28;20700;-49
2020/12/09 01:23:17;;;;;;;29.10;20.27;;;7.10;84.00;;;;;;5080806;28;20632;-50
2020/12/09 01:25:43;;;;;;;22.10;18.83;;;7.10;83.80;;;;;;5091814;28;20733;-50
2020/12/09 01:28:11;;;;;;;25.20;20.77;;;7.20;83.80;;;;;;5089918;28;20750;-50
2020/12/09 01:30:38;;;;;;;28.10;21.80;;;7.20;83.70;;;;;;5073696;28;20637;-48
2020/12/09 01:33:05;;;;;;;26.60;21.03;;;7.20;83.70;;;;;;5089990;28;20623;-50
2020/12/09 01:35:31;;;;;;;25.80;19.87;;;7.30;83.40;;;;;;5071646;28;20658;-50
2020/12/09 01:37:58;;;;;;;26.83;21.10;;;7.30;83.00;;;;;;5081792;28;20667;-54
2020/12/09 01:40:25;;;;;;;29.80;20.80;;;7.30;82.80;;;;;;5091834;28;20759;-50
2020/12/09 01:42:52;;;;;;;28.87;21.40;;;7.30;82.70;;;;;;5081405;28;20692;-48
2020/12/09 01:45:19;;;;;;;25.67;20.60;;;7.30;82.40;;;;;;5072254;28;20686;-50
2020/12/09 01:47:46;;;;;;;25.73;21.63;;;7.30;82.50;;;;;;5071341;28;20694;-49
2020/12/09 01:50:13;;;;;;;26.90;22.47;;;7.20;82.40;;;;;;5071370;28;21213;-53
2020/12/09 01:52:40;;;;;;;26.83;21.90;;;7.20;82.60;;;;;;5071262;28;20623;-53
2020/12/09 01:55:06;;;;;;;27.03;22.10;;;7.10;82.70;;;;;;5076158;28;20660;-54
2020/12/09 01:57:33;;;;;;;29.40;21.77;;;7.10;83.00;;;;;;5071157;28;20988;-53
2020/12/09 02:00:00;;;;;;;25.10;20.53;;;7.10;83.20;;;;;;5071843;28;21142;-54
2020/12/09 02:02:28;;;;;;;28.00;21.57;;;7.10;84.00;;;;;;5071249;28;21194;-53
2020/12/09 02:04:55;;;;;;;24.80;20.47;;;7.10;84.40;;;;;;5063956;28;20715;-53
2020/12/09 02:07:22;;;;;;;22.87;19.90;;;7.10;84.40;;;;;;5056336;28;20722;-51
2020/12/09 02:10:02;;;;;;;33.50;21.17;;;7.10;84.40;;;;;;5093188;28;21212;-53
2020/12/09 02:12:29;;;;;;;25.97;19.90;;;7.20;83.90;;;;;;5091432;28;20673;-54
2020/12/09 02:14:56;;;;;;;31.30;22.83;;;7.20;84.20;;;;;;5079963;28;21206;-53
2020/12/09 02:17:24;;;;;;;27.50;20.97;;;7.20;84.10;;;;;;5071029;28;20698;-54
2020/12/09 02:19:51;;;;;;;29.60;22.13;;;7.20;84.10;;;;;;5082221;28;20625;-53
2020/12/09 02:22:19;;;;;;;26.27;20.70;;;7.30;84.20;;;;;;5091515;28;21045;-53
2020/12/09 02:24:46;;;;;;;27.97;21.83;;;7.30;84.00;;;;;;5090499;28;21238;-54
2020/12/09 02:27:13;;;;;;;30.10;23.17;;;7.30;83.80;;;;;;5079870;28;20626;-54
2020/12/09 02:29:40;;;;;;;28.57;22.33;;;7.30;84.00;;;;;;5070631;28;20743;-53
2020/12/09 02:32:07;;;;;;;27.07;20.70;;;7.30;84.10;;;;;;5070896;28;20631;-53
2020/12/09 02:34:33;;;;;;;29.10;21.57;;;7.30;84.60;;;;;;5070104;28;20733;-53
2020/12/09 02:37:00;;;;;;;30.67;21.50;;;7.30;84.70;;;;;;5070346;28;20634;-51
2020/12/09 02:39:32;;;;;;;26.93;22.07;;;7.30;84.50;;;;;;5068531;28;20782;-53
2020/12/09 02:41:59;;;;;;;26.93;20.83;;;7.30;84.40;;;;;;5071207;28;20634;-52
2020/12/09 02:44:25;;;;;;;27.33;23.07;;;7.40;84.40;;;;;;5065682;28;20648;-54
2020/12/09 02:46:52;;;;;;;28.57;22.53;;;7.40;84.70;;;;;;5088639;28;21450;-51
2020/12/09 02:49:19;;;;;;;25.93;20.60;;;7.30;84.80;;;;;;5088673;28;20657;-50
2020/12/09 02:51:46;;;;;;;29.33;22.80;;;7.30;84.80;;;;;;5060678;28;20645;-51
2020/12/09 02:54:13;;;;;;;31.40;24.57;;;7.30;85.00;;;;;;5049897;28;21242;-51
2020/12/09 02:56:40;;;;;;;28.70;21.93;;;7.40;85.10;;;;;;5064209;28;20684;-51
2020/12/09 02:59:08;;;;;;;25.43;21.90;;;7.40;85.00;;;;;;5069482;28;20672;-50
2020/12/09 03:01:35;;;;;;;26.77;22.30;;;7.40;84.10;;;;;;5069739;28;20704;-50
2020/12/09 03:04:02;;;;;;;28.73;22.33;;;7.50;84.60;;;;;;5077656;28;20662;-51
2020/12/09 03:06:29;;;;;;;27.70;21.90;;;7.50;84.40;;;;;;5090301;28;20675;-48
2020/12/09 03:08:55;;;;;;;24.90;19.27;;;7.50;84.20;;;;;;5055393;28;21218;-49
2020/12/09 03:11:22;;;;;;;30.03;24.80;;;7.40;84.10;;;;;;5056184;28;20665;-48
2020/12/09 03:13:50;;;;;;;28.13;22.20;;;7.40;84.20;;;;;;5067541;28;20791;-49
2020/12/09 03:16:16;;;;;;;28.50;21.37;;;7.50;84.40;;;;;;5068364;28;20635;-49
2020/12/09 03:18:43;;;;;;;26.60;21.50;;;7.40;84.00;;;;;;5075171;28;20697;-50
2020/12/09 03:21:10;;;;;;;26.60;19.23;;;7.40;84.20;;;;;;5088040;28;20692;-50
2020/12/09 03:23:37;;;;;;;27.00;21.67;;;7.40;84.60;;;;;;5089834;28;20632;-48
2020/12/09 03:26:03;;;;;;;23.80;20.23;;;7.30;84.90;;;;;;5089968;28;20637;-49
2020/12/09 03:28:30;;;;;;;24.80;19.10;;;7.30;85.00;;;;;;5083962;28;20623;-48
2020/12/09 03:30:58;;;;;;;20.87;18.30;;;7.30;85.60;;;;;;5069398;28;20696;-49
2020/12/09 03:33:24;;;;;;;22.73;19.20;;;7.30;86.00;;;;;;5069084;28;20690;-49
2020/12/09 03:35:51;;;;;;;25.30;19.53;;;7.30;86.00;;;;;;5080320;28;20629;-48
2020/12/09 03:38:19;;;;;;;22.63;19.47;;;7.30;86.00;;;;;;5068966;28;20648;-49
2020/12/09 03:40:45;;;;;;;28.43;22.27;;;7.30;85.90;;;;;;5069073;28;20619;-49
2020/12/09 03:43:12;;;;;;;26.67;22.57;;;7.40;85.80;;;;;;5075093;28;20986;-50
2020/12/09 03:45:39;;;;;;;23.33;20.10;;;7.40;85.80;;;;;;5073665;28;20654;-49
2020/12/09 03:48:06;;;;;;;22.57;19.30;;;7.40;85.80;;;;;;5068919;28;20632;-48
2020/12/09 03:50:33;;;;;;;30.27;21.20;;;7.40;85.80;;;;;;5070438;28;20659;-48
2020/12/09 03:53:00;;;;;;;23.30;18.93;;;7.40;85.80;;;;;;5076463;28;20679;-50
2020/12/09 03:55:27;;;;;;;26.13;20.83;;;7.30;85.80;;;;;;5073106;28;21068;-50
2020/12/09 03:57:55;;;;;;;25.87;20.07;;;7.30;86.00;;;;;;5068396;28;20657;-50
2020/12/09 04:00:22;;;;;;;27.80;21.30;;;7.20;86.00;;;;;;5069595;28;21220;-50
2020/12/09 04:02:49;;;;;;;24.50;20.67;;;7.20;86.30;;;;;;5069380;28;20626;-50
2020/12/09 04:05:16;;;;;;;26.50;21.10;;;7.20;86.60;;;;;;5068284;28;20715;-50
2020/12/09 04:07:43;;;;;;;27.80;21.17;;;7.20;86.60;;;;;;5069182;28;20627;-50
2020/12/09 04:10:10;;;;;;;30.50;20.10;;;7.30;86.40;;;;;;5041966;28;20785;-50
2020/12/09 04:12:37;;;;;;;27.97;21.40;;;7.30;86.20;;;;;;5049208;28;20627;-49
2020/12/09 04:15:03;;;;;;;24.00;19.50;;;7.30;86.10;;;;;;5080656;28;20656;-50
2020/12/09 04:17:30;;;;;;;25.50;20.47;;;7.30;86.00;;;;;;5068721;28;20627;-49
2020/12/09 04:19:57;;;;;;;29.50;20.33;;;7.30;85.80;;;;;;5069248;28;20618;-49
2020/12/09 04:22:24;;;;;;;27.23;19.27;;;7.30;85.70;;;;;;5069065;28;20626;-49
2020/12/09 04:24:51;;;;;;;21.00;18.03;;;7.40;85.40;;;;;;5069176;28;20653;-49
2020/12/09 04:27:18;;;;;;;24.70;17.07;;;7.30;84.80;;;;;;5070106;28;20704;-49
2020/12/09 04:29:45;;;;;;;25.30;19.93;;;7.20;84.60;;;;;;5049478;28;20662;-50
2020/12/09 04:32:11;;;;;;;25.73;19.90;;;7.10;84.60;;;;;;5051347;28;20722;-49
2020/12/09 04:34:38;;;;;;;26.20;19.93;;;7.10;85.00;;;;;;5068974;28;20653;-53
2020/12/09 04:37:05;;;;;;;26.13;20.97;;;7.00;85.00;;;;;;5068654;28;20742;-51
2020/12/09 04:39:33;;;;;;;25.50;20.20;;;6.90;85.30;;;;;;5068367;28;20633;-53
2020/12/09 04:41:59;;;;;;;26.77;20.80;;;6.90;85.70;;;;;;5070646;28;20626;-52
2020/12/09 04:44:26;;;;;;;29.57;22.40;;;7.00;85.80;;;;;;5065911;28;20668;-51
2020/12/09 04:46:53;;;;;;;29.27;21.90;;;7.00;85.60;;;;;;5050173;28;20630;-49
2020/12/09 04:49:20;;;;;;;30.57;23.10;;;7.00;85.60;;;;;;5059343;28;20654;-51
2020/12/09 04:52:06;;;;;;;26.37;20.43;;;7.00;85.60;;;;;;5082655;28;20629;-53
2020/12/09 04:54:38;;;;;;;25.77;19.50;;;7.00;85.40;;;;;;5050761;28;20666;-50
2020/12/09 04:57:14;;;;;;;32.33;21.80;;;6.90;85.70;;;;;;5068260;28;20690;-52
2020/12/09 04:59:41;;;;;;;22.70;18.97;;;6.80;85.90;;;;;;5077154;28;20709;-49
2020/12/09 05:02:09;;;;;;;26.40;20.63;;;6.70;86.30;;;;;;5088551;28;21260;-52
2020/12/09 05:04:36;;;;;;;24.83;18.47;;;6.70;86.60;;;;;;5088456;28;21246;-51
2020/12/09 05:07:06;;;;;;;22.33;19.93;;;6.70;86.80;;;;;;5088444;28;20636;-53
2020/12/09 05:09:38;;;;;;;27.00;20.80;;;6.70;86.80;;;;;;5067834;28;20656;-52
2020/12/09 05:12:06;;;;;;;26.70;20.17;;;6.60;86.70;;;;;;5068470;28;20683;-52
2020/12/09 05:14:34;;;;;;;23.97;20.90;;;6.50;86.90;;;;;;5065561;28;20742;-53
2020/12/09 05:17:00;;;;;;;25.43;20.03;;;6.50;87.30;;;;;;5051711;28;20627;-52
2020/12/09 05:19:27;;;;;;;26.40;20.80;;;6.50;87.30;;;;;;5085988;28;20636;-53
2020/12/09 05:21:54;;;;;;;24.10;18.53;;;6.50;87.50;;;;;;5090852;28;21187;-52
2020/12/09 05:24:23;;;;;;;27.90;20.47;;;6.50;87.60;;;;;;5091711;28;20721;-52
2020/12/09 05:26:51;;;;;;;26.27;20.67;;;6.50;87.50;;;;;;5090535;28;20628;-53
2020/12/09 05:29:18;;;;;;;29.30;21.10;;;6.50;88.00;;;;;;5077951;28;20698;-53
2020/12/09 05:31:46;;;;;;;25.30;18.67;;;6.40;88.10;;;;;;5051312;28;20633;-52
2020/12/09 05:34:27;;;;;;;26.53;20.90;;;6.30;88.00;;;;;;5051897;28;20830;-53
2020/12/09 05:36:54;;;;;;;30.10;20.47;;;6.30;88.80;;;;;;5059593;28;20621;-51
2020/12/09 05:39:21;;;;;;;29.23;21.57;;;6.40;88.60;;;;;;5070879;28;20609;-52
2020/12/09 05:41:48;;;;;;;28.87;23.60;;;6.30;88.40;;;;;;5071540;28;20649;-53
2020/12/09 05:44:16;;;;;;;25.80;19.63;;;6.30;88.50;;;;;;5080545;28;20663;-51
2020/12/09 05:46:58;;;;;;;28.03;22.37;;;6.30;88.70;;;;;;5091342;28;20632;-52
2020/12/09 05:49:26;;;;;;;31.27;21.83;;;6.40;89.00;;;;;;5086806;28;21097;-52
2020/12/09 05:52:10;;;;;;;26.07;19.97;;;6.40;88.80;;;;;;5051274;28;20656;-51
2020/12/09 05:54:38;;;;;;;30.30;22.97;;;6.40;89.10;;;;;;5050668;28;21198;-52
2020/12/09 05:57:05;;;;;;;27.70;22.07;;;6.40;89.10;;;;;;5057818;28;20678;-53
2020/12/09 05:59:37;;;;;;;26.30;21.60;;;6.30;89.20;;;;;;5082784;28;20690;-52
2020/12/09 06:02:08;;;;;;;32.63;24.17;;;6.30;89.30;;;;;;5062666;28;20675;-53
2020/12/09 06:04:54;;;;;;;31.73;21.70;;;6.40;89.30;;;;;;5051676;28;20722;-53
2020/12/09 06:07:22;;;;;;;25.50;19.83;;;6.40;89.40;;;;;;5050439;28;20637;-52
2020/12/09 06:10:05;;;;;;;24.77;20.73;;;6.30;89.30;;;;;;5050999;28;20661;-53
2020/12/09 06:12:49;;;;;;;26.77;20.70;;;6.30;89.50;;;;;;5052354;28;20629;-53
2020/12/09 06:15:16;;;;;;;25.67;20.57;;;6.20;89.80;;;;;;5050971;28;21062;-53
2020/12/09 06:17:43;;;;;;;27.57;20.00;;;6.10;90.20;;;;;;5055702;28;20621;-50
2020/12/09 06:20:10;;;;;;;26.60;19.07;;;6.10;90.50;;;;;;5070672;28;20626;-50
2020/12/09 06:22:37;;;;;;;26.87;21.80;;;6.10;90.80;;;;;;5064284;28;20642;-51
2020/12/09 06:25:04;;;;;;;28.33;21.70;;;6.20;90.60;;;;;;5067312;28;20660;-51
2020/12/09 06:27:32;;;;;;;24.50;19.40;;;6.20;90.50;;;;;;5089771;28;20646;-50
2020/12/09 06:29:58;;;;;;;23.23;18.13;;;6.20;90.50;;;;;;5053210;28;21227;-51
2020/12/09 06:32:26;;;;;;;23.90;19.03;;;6.20;90.50;;;;;;5050169;28;20629;-50
2020/12/09 06:35:05;;;;;;;30.67;22.87;;;6.20;90.50;;;;;;5049775;28;21020;-50
2020/12/09 06:37:32;;;;;;;28.20;22.53;;;6.20;90.60;;;;;;5050076;28;20619;-54
2020/12/09 06:40:09;;;;;;;26.83;22.27;;;6.30;90.60;;;;;;5050238;28;20676;-54
2020/12/09 06:42:36;;;;;;;32.80;23.90;;;6.30;90.50;;;;;;5053388;28;20640;-54
2020/12/09 06:45:04;;;;;;;34.13;21.37;;;6.40;90.30;;;;;;5066037;28;20654;-53
2020/12/09 06:47:31;;;;;;;31.97;21.77;;;6.40;90.30;;;;;;5052601;28;20629;-53
2020/12/09 06:50:01;;;;;;;25.73;20.70;;;6.30;90.50;;;;;;5070396;28;20719;-52
2020/12/09 06:52:32;;;;;;;24.87;21.20;;;6.30;90.60;;;;;;5071319;28;20594;-53
2020/12/09 06:54:59;;;;;;;28.50;19.77;;;6.40;90.40;;;;;;5069448;28;20775;-54
2020/12/09 06:57:29;;;;;;;27.83;21.60;;;6.40;90.50;;;;;;5051616;28;21233;-54
2020/12/09 07:00:15;;;;;;;27.23;20.90;;;6.40;90.40;;;;;;5076945;28;20705;-54
2020/12/09 07:02:44;;;;;;;25.80;20.57;;;6.40;90.30;;;;;;5073019;28;20753;-53
2020/12/09 07:05:12;;;;;;;28.97;23.60;;;6.40;90.40;;;;;;5069926;28;20645;-53
2020/12/09 07:07:46;;;;;;;24.00;20.27;;;6.50;90.30;;;;;;5066129;28;20642;-53
2020/12/09 07:10:24;;;;;;;30.00;23.77;;;6.50;90.10;;;;;;5031947;28;20658;-53
2020/12/09 07:12:59;;;;;;;25.90;21.43;;;6.50;90.10;;;;;;5050210;28;21078;-54
2020/12/09 07:15:26;;;;;;;30.07;22.50;;;6.40;90.10;;;;;;5049683;28;21233;-51
2020/12/09 07:17:54;;;;;;;28.23;22.33;;;6.40;90.20;;;;;;5063762;28;20621;-54
2020/12/09 07:20:21;;;;;;;28.07;23.20;;;6.50;90.30;;;;;;5090900;28;20634;-50
2020/12/09 07:22:47;;;;;;;32.20;22.80;;;6.40;90.30;;;;;;5084391;28;20628;-48
2020/12/09 07:25:14;;;;;;;30.43;21.90;;;6.40;90.40;;;;;;5051197;28;20712;-49
2020/12/09 07:27:41;;;;;;;28.77;22.70;;;6.40;90.40;;;;;;5062505;28;20638;-48
2020/12/09 07:30:09;;;;;;;31.50;23.13;;;6.40;90.70;;;;;;5050319;28;20656;-48
2020/12/09 07:32:36;;;;;;;31.40;24.77;;;6.50;91.00;;;;;;5050582;28;20634;-51
2020/12/09 07:35:05;;;;;;;26.87;23.83;;;6.50;90.80;;;;;;5059227;28;21192;-51
2020/12/09 07:37:34;;;;;;;32.23;23.93;;;6.60;90.70;;;;;;5062995;28;20622;-51
2020/12/09 07:40:09;;;;;;;28.80;23.77;;;6.60;90.60;;;;;;5050051;28;20626;-53
2020/12/09 07:42:36;;;;;;;29.17;23.03;;;6.60;90.60;;;;;;5048414;28;20787;-54
2020/12/09 07:45:03;;;;;;;29.97;21.10;;;6.70;90.70;;;;;;5049157;28;20711;-50
2020/12/09 07:47:31;;;;;;;27.43;22.17;;;6.70;90.60;;;;;;5047993;28;20710;-50
2020/12/09 07:50:03;;;;;;;29.03;22.77;;;6.80;90.50;;;;;;5049019;28;21225;-51
2020/12/09 07:52:31;;;;;;;31.23;22.23;;;6.90;90.30;;;;;;5049613;28;20626;-52
2020/12/09 07:54:59;;;;;;;27.03;21.10;;;6.90;90.30;;;;;;5048850;28;20662;-51
2020/12/09 07:57:30;;;;;;;27.23;22.50;;;6.90;90.30;;;;;;5067367;28;20673;-51
2020/12/09 07:59:57;;;;;;;30.70;22.50;;;6.90;90.30;;;;;;5068406;28;20969;-50
2020/12/09 08:02:24;;;;;;;31.50;23.57;;;6.80;90.30;;;;;;5068948;28;20626;-51
2020/12/09 08:05:16;;;;;;;28.40;23.33;;;6.80;90.30;;;;;;5068472;28;20699;-51
2020/12/09 08:07:55;;;;;;;25.40;20.20;;;6.80;90.50;;;;;;5062520;28;20691;-51
2020/12/09 08:10:24;;;;;;;29.50;21.87;;;6.80;90.50;;;;;;5068362;28;21002;-52
2020/12/09 08:12:51;;;;;;;27.73;21.33;;;6.70;90.40;;;;;;5068777;28;21183;-52
2020/12/09 08:15:17;;;;;;;30.37;23.43;;;6.80;90.50;;;;;;5056648;28;20662;-49
2020/12/09 08:17:48;;;;;;;27.80;21.67;;;6.80;90.50;;;;;;5059907;28;21050;-50
2020/12/09 08:20:15;;;;;;;27.00;22.13;;;6.90;90.50;;;;;;5067691;28;20638;-51
2020/12/09 08:22:55;;;;;;;27.20;21.13;;;6.90;90.40;;;;;;5067466;28;20625;-54
2020/12/09 08:25:22;;;;;;;30.50;22.67;;;6.90;90.20;;;;;;5068891;28;20650;-53
2020/12/09 08:27:49;;;;;;;32.70;23.33;;;7.00;90.50;;;;;;5068746;28;21198;-53
2020/12/09 08:30:20;;;;;;;31.13;23.57;;;7.00;90.20;;;;;;5068642;28;21166;-51
2020/12/09 08:33:15;;;;;;;28.20;21.43;;;7.00;90.10;;;;;;5068649;28;20617;-53
2020/12/09 08:35:44;;;;;;;27.17;23.00;;;7.10;90.20;;;;;;5067873;28;20735;-53
2020/12/09 08:38:20;;;;;;;30.77;22.77;;;7.10;90.20;;;;;;5069797;28;21435;-53
2020/12/09 08:40:49;;;;;;;28.40;23.17;;;7.10;90.00;;;;;;5069256;28;21162;-52
2020/12/09 08:43:18;;;;;;;31.13;23.67;;;7.00;90.10;;;;;;5069071;28;20985;-51
2020/12/09 08:45:45;;;;;;;31.50;24.40;;;7.00;90.20;;;;;;5056267;28;21199;-51
2020/12/09 08:48:12;;;;;;;29.17;22.33;;;7.10;90.30;;;;;;5048936;28;20624;-53
2020/12/09 08:50:39;;;;;;;27.83;23.30;;;7.10;90.10;;;;;;5050478;28;20657;-53
2020/12/09 08:53:06;;;;;;;30.87;23.77;;;7.20;90.00;;;;;;5052546;28;20685;-54
2020/12/09 08:55:33;;;;;;;29.60;24.33;;;7.20;89.80;;;;;;5052256;28;20665;-50
2020/12/09 08:58:00;;;;;;;27.40;23.77;;;7.30;89.60;;;;;;5053141;28;20674;-49
2020/12/09 09:00:27;;;;;;;25.67;21.03;;;7.40;89.50;;;;;;5051645;28;20635;-50
2020/12/09 09:02:56;;;;;;;29.30;21.33;;;7.40;88.90;;;;;;5052523;28;20658;-51
2020/12/09 09:05:23;;;;;;;32.60;23.70;;;7.50;88.90;;;;;;5052581;28;20657;-52
2020/12/09 09:07:49;;;;;;;27.20;24.00;;;7.60;89.10;;;;;;5051796;28;20665;-52
2020/12/09 09:10:16;;;;;;;28.60;22.67;;;7.70;88.70;;;;;;5052975;28;20847;-54
2020/12/09 09:12:44;;;;;;;31.80;23.67;;;7.80;88.80;;;;;;5052254;28;20702;-52
2020/12/09 09:15:11;;;;;;;29.57;23.77;;;7.90;87.80;;;;;;5052323;28;20698;-49
2020/12/09 09:17:38;;;;;;;26.60;21.87;;;8.00;87.70;;;;;;5052091;28;21025;-53
2020/12/09 09:20:05;;;;;;;26.20;22.27;;;8.10;87.50;;;;;;5051723;28;20684;-52
2020/12/09 09:22:32;;;;;;;28.00;22.17;;;8.20;86.90;;;;;;5052115;28;20631;-52
2020/12/09 09:24:58;;;;;;;32.97;23.67;;;8.10;86.20;;;;;;5052420;28;20722;-48
2020/12/09 09:27:25;;;;;;;31.83;24.70;;;8.10;86.60;;;;;;5052232;28;20640;-51
2020/12/09 09:29:53;;;;;;;30.30;24.53;;;8.00;86.40;;;;;;5051659;28;20628;-50
2020/12/09 09:32:22;;;;;;;31.87;25.00;;;7.90;86.40;;;;;;5051788;28;20682;-50
2020/12/09 09:34:49;;;;;;;25.97;22.60;;;7.90;86.90;;;;;;5051169;28;20664;-49
2020/12/09 09:37:15;;;;;;;27.03;19.90;;;7.90;87.00;;;;;;5051567;28;20631;-51
2020/12/09 09:39:43;;;;;;;29.90;23.33;;;7.80;86.80;;;;;;5051170;28;20637;-49
2020/12/09 09:42:10;;;;;;;27.43;23.67;;;7.80;87.10;;;;;;5056597;28;20624;-51
2020/12/09 09:44:37;;;;;;;29.43;23.30;;;7.70;87.30;;;;;;5070736;28;20725;-50
2020/12/09 09:47:04;;;;;;;31.37;23.10;;;7.70;87.40;;;;;;5071529;28;20660;-50
2020/12/09 09:49:31;;;;;;;25.07;17.67;;;7.80;87.40;;;;;;5071327;28;20750;-49
2020/12/09 09:51:58;;;;;;;27.43;22.27;;;7.70;87.00;;;;;;5059345;28;20722;-49
2020/12/09 09:54:25;;;;;;;28.63;21.00;;;7.80;87.00;;;;;;5050944;28;20672;-49
2020/12/09 09:56:52;;;;;;;27.47;22.20;;;7.70;87.20;;;;;;5050251;28;21060;-51
2020/12/09 09:59:19;;;;;;;24.70;22.13;;;7.60;87.50;;;;;;5051388;28;20698;-51
2020/12/09 10:01:45;;;;;;;29.10;23.50;;;7.60;87.60;;;;;;5051118;28;20640;-51
2020/12/09 10:04:13;;;;;;;26.27;21.33;;;7.70;87.60;;;;;;5033954;28;21278;-51
2020/12/09 10:06:40;;;;;;;31.97;23.27;;;7.70;87.50;;;;;;5051368;28;20640;-50
2020/12/09 10:09:07;;;;;;;27.37;22.40;;;7.60;87.20;;;;;;5051736;28;20624;-49
2020/12/09 10:11:36;;;;;;;27.93;21.10;;;7.60;87.70;;;;;;5051932;28;20666;-49
2020/12/09 10:14:03;;;;;;;26.27;20.67;;;7.70;87.80;;;;;;5050773;28;20692;-49
2020/12/09 10:16:30;;;;;;;31.20;22.90;;;7.70;87.70;;;;;;5052511;28;20661;-54
2020/12/09 10:18:57;;;;;;;31.00;23.97;;;7.70;87.60;;;;;;5050959;28;20627;-54
2020/12/09 10:21:25;;;;;;;34.37;26.00;;;7.60;87.60;;;;;;5050570;28;20634;-54
2020/12/09 10:23:52;;;;;;;29.17;22.80;;;7.70;87.80;;;;;;5050447;28;20653;-53
2020/12/09 10:26:19;;;;;;;29.60;21.90;;;7.80;88.00;;;;;;5051134;28;20919;-52
2020/12/09 10:28:46;;;;;;;31.97;26.70;;;7.80;87.60;;;;;;5050496;28;20624;-52
2020/12/09 10:31:13;;;;;;;27.50;22.23;;;7.90;87.30;;;;;;5051016;28;20818;-51
2020/12/09 10:33:39;;;;;;;28.90;23.10;;;8.00;87.00;;;;;;5050787;28;20674;-53
2020/12/09 10:36:06;;;;;;;34.70;26.47;;;8.10;86.90;;;;;;5050975;28;20700;-53
2020/12/09 10:38:34;;;;;;;29.73;23.53;;;8.10;87.00;;;;;;5050970;28;20637;-52
2020/12/09 10:41:01;;;;;;;31.47;24.10;;;8.20;87.10;;;;;;5061209;28;20697;-53
2020/12/09 10:43:28;;;;;;;29.30;22.30;;;8.30;86.70;;;;;;5070716;28;20628;-53
2020/12/09 10:45:54;;;;;;;31.47;24.77;;;8.30;86.90;;;;;;5064207;28;20648;-50
2020/12/09 10:48:21;;;;;;;28.87;22.80;;;8.30;85.80;;;;;;5070440;28;20671;-51
2020/12/09 10:50:48;;;;;;;28.67;22.87;;;8.20;85.00;;;;;;5069791;28;21220;-52
2020/12/09 10:53:15;;;;;;;29.33;22.20;;;8.20;85.40;;;;;;5070541;28;20629;-50
2020/12/09 10:55:43;;;;;;;25.90;21.53;;;8.20;85.60;;;;;;5070120;28;21234;-53
2020/12/09 10:58:09;;;;;;;25.67;21.80;;;8.10;85.60;;;;;;5070130;28;20662;-52
2020/12/09 11:00:36;;;;;;;33.47;24.30;;;8.00;86.10;;;;;;5058999;28;20636;-51
2020/12/09 11:03:03;;;;;;;35.33;24.00;;;8.00;86.60;;;;;;5049621;28;20682;-54
2020/12/09 11:05:30;;;;;;;31.13;24.50;;;8.10;86.80;;;;;;5050665;28;21144;-54
2020/12/09 11:07:57;;;;;;;27.30;20.43;;;7.90;87.20;;;;;;5049785;28;20625;-53
2020/12/09 11:10:23;;;;;;;25.50;19.87;;;7.90;87.30;;;;;;5032498;28;20987;-53
2020/12/09 11:12:51;;;;;;;29.57;22.93;;;7.90;87.40;;;;;;5049119;28;20633;-54
2020/12/09 11:15:18;;;;;;;32.20;23.13;;;7.80;88.00;;;;;;5050010;28;20734;-53
2020/12/09 11:17:45;;;;;;;27.13;20.90;;;7.70;87.60;;;;;;5049697;28;20629;-54
2020/12/09 11:20:12;;;;;;;29.27;21.80;;;7.70;87.80;;;;;;5050923;28;20633;-50
2020/12/09 11:22:39;;;;;;;28.27;22.80;;;7.70;88.00;;;;;;5050225;28;21136;-50
2020/12/09 11:25:06;;;;;;;27.73;22.43;;;7.80;88.20;;;;;;5049387;28;20668;-51
2020/12/09 11:27:33;;;;;;;29.90;22.70;;;7.90;88.20;;;;;;5049885;28;20642;-49
2020/12/09 11:30:01;;;;;;;29.30;21.67;;;8.00;87.70;;;;;;5049744;28;20703;-51
2020/12/09 11:32:32;;;;;;;31.07;24.50;;;8.00;88.10;;;;;;5050104;28;20693;-52
2020/12/09 11:34:59;;;;;;;30.97;23.27;;;8.10;87.60;;;;;;5049655;28;20718;-48
2020/12/09 11:37:27;;;;;;;29.20;20.63;;;8.20;87.40;;;;;;5030989;28;20640;-49
2020/12/09 11:39:54;;;;;;;28.30;23.93;;;8.20;86.50;;;;;;5045922;28;21334;-49
2020/12/09 11:42:21;;;;;;;31.43;24.40;;;8.10;86.70;;;;;;5068940;28;20617;-49
2020/12/09 11:44:48;;;;;;;29.47;22.30;;;8.10;87.40;;;;;;5066620;28;20668;-50
2020/12/09 11:47:15;;;;;;;30.70;24.00;;;8.20;87.30;;;;;;5051156;28;20694;-49
2020/12/09 11:49:42;;;;;;;26.90;21.83;;;8.30;87.80;;;;;;5048932;28;20627;-48
2020/12/09 11:52:09;;;;;;;28.97;22.93;;;8.30;86.60;;;;;;5049187;28;20661;-49
2020/12/09 11:54:36;;;;;;;28.57;22.77;;;8.30;86.60;;;;;;5048756;28;20685;-52
2020/12/09 11:57:03;;;;;;;36.70;25.17;;;8.30;86.60;;;;;;5030576;28;20699;-49
2020/12/09 11:59:30;;;;;;;30.67;23.00;;;8.40;86.80;;;;;;5049607;28;20989;-51
2020/12/09 12:01:57;;;;;;;30.57;24.97;;;8.40;86.40;;;;;;5048955;28;20630;-53
2020/12/09 12:04:24;;;;;;;32.20;22.90;;;8.30;86.10;;;;;;5048783;28;20676;-52
2020/12/09 12:06:51;;;;;;;28.80;21.40;;;8.30;86.00;;;;;;5048609;28;20624;-50
2020/12/09 12:09:18;;;;;;;29.53;23.70;;;8.40;86.20;;;;;;5048755;28;20624;-51
2020/12/09 12:11:45;;;;;;;35.13;27.13;;;8.40;85.80;;;;;;5047843;28;20672;-50
2020/12/09 12:14:12;;;;;;;30.20;23.37;;;8.40;86.10;;;;;;5047938;28;20676;-53
2020/12/09 12:16:39;;;;;;;30.10;21.33;;;8.50;86.20;;;;;;5030493;28;20637;-51
2020/12/09 12:19:06;;;;;;;26.03;20.73;;;8.50;86.10;;;;;;5047718;28;20659;-52
2020/12/09 12:21:33;;;;;;;30.17;22.87;;;8.60;86.00;;;;;;5048019;28;20674;-52
2020/12/09 12:24:00;;;;;;;34.13;23.93;;;8.60;85.90;;;;;;5047721;28;20669;-51
2020/12/09 12:26:27;;;;;;;33.67;22.93;;;8.40;85.90;;;;;;5051664;28;21494;-51
2020/12/09 12:28:54;;;;;;;29.83;22.10;;;8.40;86.10;;;;;;5051979;28;20629;-51
2020/12/09 12:31:21;;;;;;;34.60;23.63;;;8.20;86.60;;;;;;5066319;28;21068;-50
2020/12/09 12:33:48;;;;;;;28.77;22.07;;;8.10;87.30;;;;;;5072302;28;20720;-51
2020/12/09 12:36:15;;;;;;;27.00;20.77;;;8.00;87.70;;;;;;5071678;28;20632;-51
2020/12/09 12:38:42;;;;;;;30.77;22.17;;;8.00;88.20;;;;;;5053936;28;20632;-51